<?xml version="1.0" encoding="utf-8"?>
<gpx xmlns:xsi="http://www.w3.org/2001/XMLSchema-instance" xmlns:xsd="http://www.w3.org/2001/XMLSchema" version="1.1" creator="Shapelink.com" xmlns="http://www.topografix.com/GPX/1/1" xmlns:gpxtpx="http://www.garmin.com/xmlschemas/TrackPointExtension/v1">
  <metadata>
    <name>Løping 5.15 km, 2012-08-25</name>
    <desc></desc>
    <author><name>Mikael Blom</name></author> 
    <time>2012-08-25T06:03:57Z</time>
  </metadata>
  <trk>
    <name>Løping 5.15 km, 2012-08-25</name>
    <trkseg>
      <trkpt lat="59.9788361" lon="17.7392423">
        <ele>39.0707</ele>
        <time>2012-08-25T06:03:57Z</time>
      </trkpt>
      <trkpt lat="59.9786884" lon="17.7392486">
        <ele>38.5901</ele>
        <time>2012-08-25T06:04:02Z</time>
      </trkpt>
      <trkpt lat="59.9784838" lon="17.7392708">
        <ele>38.1094</ele>
        <time>2012-08-25T06:04:09Z</time>
      </trkpt>
      <trkpt lat="59.9782621" lon="17.7393682">
        <ele>37.6287</ele>
        <time>2012-08-25T06:04:17Z</time>
      </trkpt>
      <trkpt lat="59.9780991" lon="17.739446">
        <ele>37.1481</ele>
        <time>2012-08-25T06:04:22Z</time>
      </trkpt>
      <trkpt lat="59.9779147" lon="17.739489">
        <ele>36.6675</ele>
        <time>2012-08-25T06:04:28Z</time>
      </trkpt>
      <trkpt lat="59.9777617" lon="17.7393684">
        <ele>36.6675</ele>
        <time>2012-08-25T06:04:34Z</time>
      </trkpt>
      <trkpt lat="59.9776731" lon="17.7392114">
        <ele>37.1481</ele>
        <time>2012-08-25T06:04:39Z</time>
      </trkpt>
      <trkpt lat="59.9775955" lon="17.7390793">
        <ele>36.6675</ele>
        <time>2012-08-25T06:04:43Z</time>
      </trkpt>
      <trkpt lat="59.9775239" lon="17.7390992">
        <ele>36.6675</ele>
        <time>2012-08-25T06:04:47Z</time>
      </trkpt>
      <trkpt lat="59.9773764" lon="17.7390633">
        <ele>36.1868</ele>
        <time>2012-08-25T06:04:54Z</time>
      </trkpt>
      <trkpt lat="59.9773579" lon="17.7390525">
        <ele>36.1868</ele>
        <time>2012-08-25T06:04:55Z</time>
      </trkpt>
      <trkpt lat="59.9771845" lon="17.7392202">
        <ele>36.1868</ele>
        <time>2012-08-25T06:05:02Z</time>
      </trkpt>
      <trkpt lat="59.9770897" lon="17.7392902">
        <ele>36.1868</ele>
        <time>2012-08-25T06:05:07Z</time>
      </trkpt>
      <trkpt lat="59.9769795" lon="17.7393383">
        <ele>36.1868</ele>
        <time>2012-08-25T06:05:12Z</time>
      </trkpt>
      <trkpt lat="59.9765874" lon="17.7392854">
        <ele>35.7061</ele>
        <time>2012-08-25T06:05:34Z</time>
      </trkpt>
      <trkpt lat="59.9762264" lon="17.7402956">
        <ele>36.1868</ele>
        <time>2012-08-25T06:05:49Z</time>
      </trkpt>
      <trkpt lat="59.9761596" lon="17.7405386">
        <ele>36.1868</ele>
        <time>2012-08-25T06:05:55Z</time>
      </trkpt>
      <trkpt lat="59.9760469" lon="17.74084">
        <ele>36.6675</ele>
        <time>2012-08-25T06:06:01Z</time>
      </trkpt>
      <trkpt lat="59.9759606" lon="17.7411421">
        <ele>36.6675</ele>
        <time>2012-08-25T06:06:08Z</time>
      </trkpt>
      <trkpt lat="59.975914" lon="17.7413246">
        <ele>37.1481</ele>
        <time>2012-08-25T06:06:12Z</time>
      </trkpt>
      <trkpt lat="59.9758612" lon="17.7415402">
        <ele>37.6287</ele>
        <time>2012-08-25T06:06:17Z</time>
      </trkpt>
      <trkpt lat="59.9758187" lon="17.7417525">
        <ele>38.5901</ele>
        <time>2012-08-25T06:06:22Z</time>
      </trkpt>
      <trkpt lat="59.9757684" lon="17.7419774">
        <ele>39.5513</ele>
        <time>2012-08-25T06:06:27Z</time>
      </trkpt>
      <trkpt lat="59.9757139" lon="17.7422447">
        <ele>39.5513</ele>
        <time>2012-08-25T06:06:33Z</time>
      </trkpt>
      <trkpt lat="59.9756472" lon="17.7424556">
        <ele>40.9934</ele>
        <time>2012-08-25T06:06:38Z</time>
      </trkpt>
      <trkpt lat="59.975573" lon="17.7427089">
        <ele>41.9547</ele>
        <time>2012-08-25T06:06:44Z</time>
      </trkpt>
      <trkpt lat="59.9754233" lon="17.7431197">
        <ele>41.474</ele>
        <time>2012-08-25T06:06:53Z</time>
      </trkpt>
      <trkpt lat="59.9753991" lon="17.7433483">
        <ele>40.9934</ele>
        <time>2012-08-25T06:06:58Z</time>
      </trkpt>
      <trkpt lat="59.975338" lon="17.7435273">
        <ele>39.5513</ele>
        <time>2012-08-25T06:07:02Z</time>
      </trkpt>
      <trkpt lat="59.975308" lon="17.7437598">
        <ele>40.0321</ele>
        <time>2012-08-25T06:07:07Z</time>
      </trkpt>
      <trkpt lat="59.9752503" lon="17.7440483">
        <ele>39.5513</ele>
        <time>2012-08-25T06:07:13Z</time>
      </trkpt>
      <trkpt lat="59.9752274" lon="17.7442973">
        <ele>40.9934</ele>
        <time>2012-08-25T06:07:19Z</time>
      </trkpt>
      <trkpt lat="59.9751965" lon="17.7445085">
        <ele>41.9547</ele>
        <time>2012-08-25T06:07:24Z</time>
      </trkpt>
      <trkpt lat="59.9751215" lon="17.7447459">
        <ele>42.916</ele>
        <time>2012-08-25T06:07:30Z</time>
      </trkpt>
      <trkpt lat="59.9750774" lon="17.744897">
        <ele>43.3966</ele>
        <time>2012-08-25T06:07:34Z</time>
      </trkpt>
      <trkpt lat="59.9750043" lon="17.7451431">
        <ele>45.3192</ele>
        <time>2012-08-25T06:07:40Z</time>
      </trkpt>
      <trkpt lat="59.9749224" lon="17.7453378">
        <ele>46.7612</ele>
        <time>2012-08-25T06:07:45Z</time>
      </trkpt>
      <trkpt lat="59.9748562" lon="17.7455184">
        <ele>47.2418</ele>
        <time>2012-08-25T06:07:50Z</time>
      </trkpt>
      <trkpt lat="59.974817" lon="17.7456786">
        <ele>48.2034</ele>
        <time>2012-08-25T06:07:54Z</time>
      </trkpt>
      <trkpt lat="59.9747344" lon="17.7458515">
        <ele>48.684</ele>
        <time>2012-08-25T06:07:59Z</time>
      </trkpt>
      <trkpt lat="59.9746693" lon="17.7460303">
        <ele>48.2034</ele>
        <time>2012-08-25T06:08:04Z</time>
      </trkpt>
      <trkpt lat="59.9745532" lon="17.7462245">
        <ele>46.7612</ele>
        <time>2012-08-25T06:08:11Z</time>
      </trkpt>
      <trkpt lat="59.9744186" lon="17.7464188">
        <ele>46.7612</ele>
        <time>2012-08-25T06:08:17Z</time>
      </trkpt>
      <trkpt lat="59.9742701" lon="17.7465895">
        <ele>49.6453</ele>
        <time>2012-08-25T06:08:23Z</time>
      </trkpt>
      <trkpt lat="59.9742382" lon="17.7466318">
        <ele>48.684</ele>
        <time>2012-08-25T06:08:25Z</time>
      </trkpt>
      <trkpt lat="59.9741195" lon="17.7467924">
        <ele>49.6453</ele>
        <time>2012-08-25T06:08:31Z</time>
      </trkpt>
      <trkpt lat="59.974" lon="17.7469489">
        <ele>49.1646</ele>
        <time>2012-08-25T06:08:36Z</time>
      </trkpt>
      <trkpt lat="59.9738843" lon="17.7470658">
        <ele>50.6066</ele>
        <time>2012-08-25T06:08:42Z</time>
      </trkpt>
      <trkpt lat="59.9737747" lon="17.7472005">
        <ele>47.7225</ele>
        <time>2012-08-25T06:08:50Z</time>
      </trkpt>
      <trkpt lat="59.972549" lon="17.7489721">
        <ele>40.9934</ele>
        <time>2012-08-25T06:09:45Z</time>
      </trkpt>
      <trkpt lat="59.9724664" lon="17.7491533">
        <ele>47.2418</ele>
        <time>2012-08-25T06:09:50Z</time>
      </trkpt>
      <trkpt lat="59.9724231" lon="17.7492564">
        <ele>51.0872</ele>
        <time>2012-08-25T06:09:54Z</time>
      </trkpt>
      <trkpt lat="59.9723556" lon="17.7494698">
        <ele>51.5679</ele>
        <time>2012-08-25T06:10:00Z</time>
      </trkpt>
      <trkpt lat="59.9723438" lon="17.7495185">
        <ele>51.0872</ele>
        <time>2012-08-25T06:10:01Z</time>
      </trkpt>
      <trkpt lat="59.9722007" lon="17.7498362">
        <ele>49.1646</ele>
        <time>2012-08-25T06:10:07Z</time>
      </trkpt>
      <trkpt lat="59.9721342" lon="17.7500288">
        <ele>44.8386</ele>
        <time>2012-08-25T06:10:11Z</time>
      </trkpt>
      <trkpt lat="59.9720874" lon="17.7501247">
        <ele>43.3966</ele>
        <time>2012-08-25T06:10:14Z</time>
      </trkpt>
      <trkpt lat="59.9719485" lon="17.7503639">
        <ele>43.8773</ele>
        <time>2012-08-25T06:10:20Z</time>
      </trkpt>
      <trkpt lat="59.9719164" lon="17.7504553">
        <ele>46.7612</ele>
        <time>2012-08-25T06:10:23Z</time>
      </trkpt>
      <trkpt lat="59.9717803" lon="17.7506666">
        <ele>41.474</ele>
        <time>2012-08-25T06:10:30Z</time>
      </trkpt>
      <trkpt lat="59.9717565" lon="17.7506993">
        <ele>40.9934</ele>
        <time>2012-08-25T06:10:32Z</time>
      </trkpt>
      <trkpt lat="59.9716812" lon="17.7507871">
        <ele>43.8773</ele>
        <time>2012-08-25T06:10:37Z</time>
      </trkpt>
      <trkpt lat="59.9715524" lon="17.7509307">
        <ele>44.358</ele>
        <time>2012-08-25T06:10:44Z</time>
      </trkpt>
      <trkpt lat="59.971513" lon="17.7510322">
        <ele>41.474</ele>
        <time>2012-08-25T06:10:47Z</time>
      </trkpt>
      <trkpt lat="59.9713648" lon="17.7512271">
        <ele>36.6675</ele>
        <time>2012-08-25T06:10:54Z</time>
      </trkpt>
      <trkpt lat="59.9713167" lon="17.7512867">
        <ele>35.2255</ele>
        <time>2012-08-25T06:10:56Z</time>
      </trkpt>
      <trkpt lat="59.9712178" lon="17.7513908">
        <ele>33.3029</ele>
        <time>2012-08-25T06:11:01Z</time>
      </trkpt>
      <trkpt lat="59.9711124" lon="17.7515194">
        <ele>35.2255</ele>
        <time>2012-08-25T06:11:07Z</time>
      </trkpt>
      <trkpt lat="59.9710262" lon="17.7516618">
        <ele>34.7449</ele>
        <time>2012-08-25T06:11:13Z</time>
      </trkpt>
      <trkpt lat="59.9709158" lon="17.7518461">
        <ele>33.3029</ele>
        <time>2012-08-25T06:11:17Z</time>
      </trkpt>
      <trkpt lat="59.9708562" lon="17.7519379">
        <ele>32.3416</ele>
        <time>2012-08-25T06:11:19Z</time>
      </trkpt>
      <trkpt lat="59.9707489" lon="17.7520937">
        <ele>32.3416</ele>
        <time>2012-08-25T06:11:24Z</time>
      </trkpt>
      <trkpt lat="59.9706805" lon="17.7522299">
        <ele>30.8995</ele>
        <time>2012-08-25T06:11:28Z</time>
      </trkpt>
      <trkpt lat="59.9705656" lon="17.7524593">
        <ele>30.8995</ele>
        <time>2012-08-25T06:11:34Z</time>
      </trkpt>
      <trkpt lat="59.970505" lon="17.7526341">
        <ele>31.8607</ele>
        <time>2012-08-25T06:11:38Z</time>
      </trkpt>
      <trkpt lat="59.9704086" lon="17.7528882">
        <ele>32.3416</ele>
        <time>2012-08-25T06:11:43Z</time>
      </trkpt>
      <trkpt lat="59.9703252" lon="17.753096">
        <ele>35.2255</ele>
        <time>2012-08-25T06:11:48Z</time>
      </trkpt>
      <trkpt lat="59.9702768" lon="17.7532865">
        <ele>35.2255</ele>
        <time>2012-08-25T06:11:52Z</time>
      </trkpt>
      <trkpt lat="59.9702076" lon="17.7534728">
        <ele>34.7449</ele>
        <time>2012-08-25T06:11:57Z</time>
      </trkpt>
      <trkpt lat="59.9701283" lon="17.7536689">
        <ele>36.1868</ele>
        <time>2012-08-25T06:12:02Z</time>
      </trkpt>
      <trkpt lat="59.9700359" lon="17.7538543">
        <ele>38.5901</ele>
        <time>2012-08-25T06:12:07Z</time>
      </trkpt>
      <trkpt lat="59.9699728" lon="17.7540104">
        <ele>39.5513</ele>
        <time>2012-08-25T06:12:11Z</time>
      </trkpt>
      <trkpt lat="59.9698813" lon="17.754189">
        <ele>39.5513</ele>
        <time>2012-08-25T06:12:16Z</time>
      </trkpt>
      <trkpt lat="59.9697581" lon="17.7544207">
        <ele>39.5513</ele>
        <time>2012-08-25T06:12:22Z</time>
      </trkpt>
      <trkpt lat="59.9697014" lon="17.7545926">
        <ele>40.5128</ele>
        <time>2012-08-25T06:12:27Z</time>
      </trkpt>
      <trkpt lat="59.9696092" lon="17.7547982">
        <ele>39.5513</ele>
        <time>2012-08-25T06:12:32Z</time>
      </trkpt>
      <trkpt lat="59.9695767" lon="17.7548923">
        <ele>39.5513</ele>
        <time>2012-08-25T06:12:35Z</time>
      </trkpt>
      <trkpt lat="59.9694882" lon="17.7550713">
        <ele>37.1481</ele>
        <time>2012-08-25T06:12:41Z</time>
      </trkpt>
      <trkpt lat="59.9693371" lon="17.7553318">
        <ele>35.7061</ele>
        <time>2012-08-25T06:12:48Z</time>
      </trkpt>
      <trkpt lat="59.9692498" lon="17.7555323">
        <ele>35.2255</ele>
        <time>2012-08-25T06:12:53Z</time>
      </trkpt>
      <trkpt lat="59.9691939" lon="17.7556036">
        <ele>35.7061</ele>
        <time>2012-08-25T06:12:55Z</time>
      </trkpt>
      <trkpt lat="59.9690935" lon="17.755816">
        <ele>38.1094</ele>
        <time>2012-08-25T06:13:01Z</time>
      </trkpt>
      <trkpt lat="59.969042" lon="17.7559468">
        <ele>39.0707</ele>
        <time>2012-08-25T06:13:05Z</time>
      </trkpt>
      <trkpt lat="59.968969" lon="17.7561405">
        <ele>39.0707</ele>
        <time>2012-08-25T06:13:10Z</time>
      </trkpt>
      <trkpt lat="59.9689473" lon="17.7561776">
        <ele>39.0707</ele>
        <time>2012-08-25T06:13:11Z</time>
      </trkpt>
      <trkpt lat="59.9689269" lon="17.7561736">
        <ele>39.0707</ele>
        <time>2012-08-25T06:13:12Z</time>
      </trkpt>
      <trkpt lat="59.9689378" lon="17.7560397">
        <ele>37.1481</ele>
        <time>2012-08-25T06:13:15Z</time>
      </trkpt>
      <trkpt lat="59.9689627" lon="17.7559934">
        <ele>37.6287</ele>
        <time>2012-08-25T06:13:16Z</time>
      </trkpt>
      <trkpt lat="59.9690991" lon="17.7557325">
        <ele>37.6287</ele>
        <time>2012-08-25T06:13:23Z</time>
      </trkpt>
      <trkpt lat="59.9692036" lon="17.7555466">
        <ele>37.1481</ele>
        <time>2012-08-25T06:13:29Z</time>
      </trkpt>
      <trkpt lat="59.9692874" lon="17.7553577">
        <ele>38.5901</ele>
        <time>2012-08-25T06:13:34Z</time>
      </trkpt>
      <trkpt lat="59.969383" lon="17.7551589">
        <ele>40.5128</ele>
        <time>2012-08-25T06:13:39Z</time>
      </trkpt>
      <trkpt lat="59.9694664" lon="17.7549669">
        <ele>43.3966</ele>
        <time>2012-08-25T06:13:44Z</time>
      </trkpt>
      <trkpt lat="59.9695477" lon="17.7547598">
        <ele>45.7999</ele>
        <time>2012-08-25T06:13:49Z</time>
      </trkpt>
      <trkpt lat="59.969642" lon="17.7546087">
        <ele>48.2034</ele>
        <time>2012-08-25T06:13:54Z</time>
      </trkpt>
      <trkpt lat="59.969714" lon="17.7545556">
        <ele>45.7999</ele>
        <time>2012-08-25T06:13:58Z</time>
      </trkpt>
      <trkpt lat="59.9697969" lon="17.7543008">
        <ele>43.8773</ele>
        <time>2012-08-25T06:14:04Z</time>
      </trkpt>
      <trkpt lat="59.9698703" lon="17.7541433">
        <ele>41.474</ele>
        <time>2012-08-25T06:14:09Z</time>
      </trkpt>
      <trkpt lat="59.9699584" lon="17.7539498">
        <ele>42.916</ele>
        <time>2012-08-25T06:14:14Z</time>
      </trkpt>
      <trkpt lat="59.9700337" lon="17.7537734">
        <ele>47.2418</ele>
        <time>2012-08-25T06:14:18Z</time>
      </trkpt>
      <trkpt lat="59.9700948" lon="17.7536632">
        <ele>44.358</ele>
        <time>2012-08-25T06:14:22Z</time>
      </trkpt>
      <trkpt lat="59.9701603" lon="17.7535103">
        <ele>42.4354</ele>
        <time>2012-08-25T06:14:27Z</time>
      </trkpt>
      <trkpt lat="59.9702345" lon="17.753327">
        <ele>40.0321</ele>
        <time>2012-08-25T06:14:33Z</time>
      </trkpt>
      <trkpt lat="59.9703133" lon="17.753105">
        <ele>43.8773</ele>
        <time>2012-08-25T06:14:38Z</time>
      </trkpt>
      <trkpt lat="59.9703348" lon="17.7530521">
        <ele>41.474</ele>
        <time>2012-08-25T06:14:40Z</time>
      </trkpt>
      <trkpt lat="59.970403" lon="17.7528503">
        <ele>42.916</ele>
        <time>2012-08-25T06:14:45Z</time>
      </trkpt>
      <trkpt lat="59.9705087" lon="17.7525967">
        <ele>45.3192</ele>
        <time>2012-08-25T06:14:51Z</time>
      </trkpt>
      <trkpt lat="59.9705641" lon="17.7524532">
        <ele>43.3966</ele>
        <time>2012-08-25T06:14:55Z</time>
      </trkpt>
      <trkpt lat="59.9706537" lon="17.7522454">
        <ele>46.7612</ele>
        <time>2012-08-25T06:15:00Z</time>
      </trkpt>
      <trkpt lat="59.9707526" lon="17.7520609">
        <ele>47.2418</ele>
        <time>2012-08-25T06:15:05Z</time>
      </trkpt>
      <trkpt lat="59.9708552" lon="17.7519368">
        <ele>45.7999</ele>
        <time>2012-08-25T06:15:10Z</time>
      </trkpt>
      <trkpt lat="59.9709472" lon="17.751749">
        <ele>45.7999</ele>
        <time>2012-08-25T06:15:15Z</time>
      </trkpt>
      <trkpt lat="59.9710359" lon="17.7515887">
        <ele>44.8386</ele>
        <time>2012-08-25T06:15:20Z</time>
      </trkpt>
      <trkpt lat="59.9711416" lon="17.7513668">
        <ele>52.5292</ele>
        <time>2012-08-25T06:15:25Z</time>
      </trkpt>
      <trkpt lat="59.9712493" lon="17.7512059">
        <ele>56.3745</ele>
        <time>2012-08-25T06:15:30Z</time>
      </trkpt>
      <trkpt lat="59.9713534" lon="17.751078">
        <ele>57.3358</ele>
        <time>2012-08-25T06:15:35Z</time>
      </trkpt>
      <trkpt lat="59.9713912" lon="17.7510485">
        <ele>56.8551</ele>
        <time>2012-08-25T06:15:37Z</time>
      </trkpt>
      <trkpt lat="59.9714846" lon="17.7509229">
        <ele>59.7391</ele>
        <time>2012-08-25T06:15:42Z</time>
      </trkpt>
      <trkpt lat="59.9715197" lon="17.7508987">
        <ele>57.3358</ele>
        <time>2012-08-25T06:15:44Z</time>
      </trkpt>
      <trkpt lat="59.9716361" lon="17.7506945">
        <ele>61.181</ele>
        <time>2012-08-25T06:15:50Z</time>
      </trkpt>
      <trkpt lat="59.9716742" lon="17.7506309">
        <ele>63.1036</ele>
        <time>2012-08-25T06:15:52Z</time>
      </trkpt>
      <trkpt lat="59.9717654" lon="17.7504546">
        <ele>66.949</ele>
        <time>2012-08-25T06:15:57Z</time>
      </trkpt>
      <trkpt lat="59.9718616" lon="17.7502775">
        <ele>68.8716</ele>
        <time>2012-08-25T06:16:02Z</time>
      </trkpt>
      <trkpt lat="59.9719626" lon="17.7500792">
        <ele>75.1202</ele>
        <time>2012-08-25T06:16:07Z</time>
      </trkpt>
      <trkpt lat="59.9720583" lon="17.7498219">
        <ele>86.656</ele>
        <time>2012-08-25T06:16:12Z</time>
      </trkpt>
      <trkpt lat="59.9721165" lon="17.749731">
        <ele>84.7334</ele>
        <time>2012-08-25T06:16:16Z</time>
      </trkpt>
      <trkpt lat="59.972153" lon="17.7497026">
        <ele>73.1976</ele>
        <time>2012-08-25T06:16:22Z</time>
      </trkpt>
      <trkpt lat="59.9721895" lon="17.7495755">
        <ele>67.4297</ele>
        <time>2012-08-25T06:16:26Z</time>
      </trkpt>
      <trkpt lat="59.9722443" lon="17.7494597">
        <ele>56.3745</ele>
        <time>2012-08-25T06:16:32Z</time>
      </trkpt>
      <trkpt lat="59.9722654" lon="17.7494325">
        <ele>50.6066</ele>
        <time>2012-08-25T06:16:35Z</time>
      </trkpt>
      <trkpt lat="59.9723139" lon="17.7493131">
        <ele>44.358</ele>
        <time>2012-08-25T06:16:39Z</time>
      </trkpt>
      <trkpt lat="59.9723782" lon="17.7491878">
        <ele>39.5513</ele>
        <time>2012-08-25T06:16:44Z</time>
      </trkpt>
      <trkpt lat="59.9724169" lon="17.7491421">
        <ele>38.5901</ele>
        <time>2012-08-25T06:16:46Z</time>
      </trkpt>
      <trkpt lat="59.9725029" lon="17.7489364">
        <ele>35.2255</ele>
        <time>2012-08-25T06:16:52Z</time>
      </trkpt>
      <trkpt lat="59.9725677" lon="17.7487794">
        <ele>34.2642</ele>
        <time>2012-08-25T06:16:57Z</time>
      </trkpt>
      <trkpt lat="59.9726552" lon="17.7486033">
        <ele>32.3416</ele>
        <time>2012-08-25T06:17:03Z</time>
      </trkpt>
      <trkpt lat="59.9727282" lon="17.7484294">
        <ele>31.8607</ele>
        <time>2012-08-25T06:17:08Z</time>
      </trkpt>
      <trkpt lat="59.9728111" lon="17.7483035">
        <ele>32.3416</ele>
        <time>2012-08-25T06:17:12Z</time>
      </trkpt>
      <trkpt lat="59.9729064" lon="17.7481278">
        <ele>31.8607</ele>
        <time>2012-08-25T06:17:17Z</time>
      </trkpt>
      <trkpt lat="59.972928" lon="17.7481076">
        <ele>31.8607</ele>
        <time>2012-08-25T06:17:18Z</time>
      </trkpt>
      <trkpt lat="59.973034" lon="17.7479992">
        <ele>30.4188</ele>
        <time>2012-08-25T06:17:23Z</time>
      </trkpt>
      <trkpt lat="59.9731058" lon="17.7479393">
        <ele>28.4962</ele>
        <time>2012-08-25T06:17:27Z</time>
      </trkpt>
      <trkpt lat="59.9732307" lon="17.7478028">
        <ele>26.5736</ele>
        <time>2012-08-25T06:17:34Z</time>
      </trkpt>
      <trkpt lat="59.9733422" lon="17.7476414">
        <ele>28.0155</ele>
        <time>2012-08-25T06:17:40Z</time>
      </trkpt>
      <trkpt lat="59.973456" lon="17.7475113">
        <ele>30.8995</ele>
        <time>2012-08-25T06:17:46Z</time>
      </trkpt>
      <trkpt lat="59.9735532" lon="17.7473767">
        <ele>35.7061</ele>
        <time>2012-08-25T06:17:51Z</time>
      </trkpt>
      <trkpt lat="59.9736498" lon="17.747233">
        <ele>37.1481</ele>
        <time>2012-08-25T06:17:57Z</time>
      </trkpt>
      <trkpt lat="59.9738009" lon="17.7470367">
        <ele>38.1094</ele>
        <time>2012-08-25T06:18:05Z</time>
      </trkpt>
      <trkpt lat="59.9738218" lon="17.7470192">
        <ele>37.6287</ele>
        <time>2012-08-25T06:18:06Z</time>
      </trkpt>
      <trkpt lat="59.9739668" lon="17.74681">
        <ele>37.1481</ele>
        <time>2012-08-25T06:18:13Z</time>
      </trkpt>
      <trkpt lat="59.9741155" lon="17.7466627">
        <ele>35.7061</ele>
        <time>2012-08-25T06:18:20Z</time>
      </trkpt>
      <trkpt lat="59.9741924" lon="17.7465833">
        <ele>34.2642</ele>
        <time>2012-08-25T06:18:24Z</time>
      </trkpt>
      <trkpt lat="59.9742952" lon="17.7464605">
        <ele>34.2642</ele>
        <time>2012-08-25T06:18:29Z</time>
      </trkpt>
      <trkpt lat="59.9744305" lon="17.746283">
        <ele>35.7061</ele>
        <time>2012-08-25T06:18:36Z</time>
      </trkpt>
      <trkpt lat="59.9745283" lon="17.7461861">
        <ele>35.2255</ele>
        <time>2012-08-25T06:18:41Z</time>
      </trkpt>
      <trkpt lat="59.9745903" lon="17.7461284">
        <ele>34.7449</ele>
        <time>2012-08-25T06:18:44Z</time>
      </trkpt>
      <trkpt lat="59.9746542" lon="17.7460128">
        <ele>32.8223</ele>
        <time>2012-08-25T06:18:48Z</time>
      </trkpt>
      <trkpt lat="59.9746673" lon="17.745981">
        <ele>32.3416</ele>
        <time>2012-08-25T06:18:49Z</time>
      </trkpt>
      <trkpt lat="59.9747547" lon="17.745789">
        <ele>30.8995</ele>
        <time>2012-08-25T06:18:55Z</time>
      </trkpt>
      <trkpt lat="59.9747904" lon="17.7457441">
        <ele>30.8995</ele>
        <time>2012-08-25T06:18:57Z</time>
      </trkpt>
      <trkpt lat="59.9748801" lon="17.7455434">
        <ele>32.3416</ele>
        <time>2012-08-25T06:19:03Z</time>
      </trkpt>
      <trkpt lat="59.9749373" lon="17.7453897">
        <ele>33.7834</ele>
        <time>2012-08-25T06:19:07Z</time>
      </trkpt>
      <trkpt lat="59.9749996" lon="17.7452281">
        <ele>34.7449</ele>
        <time>2012-08-25T06:19:11Z</time>
      </trkpt>
      <trkpt lat="59.9750547" lon="17.7450445">
        <ele>35.2255</ele>
        <time>2012-08-25T06:19:15Z</time>
      </trkpt>
      <trkpt lat="59.9751091" lon="17.7448773">
        <ele>35.7061</ele>
        <time>2012-08-25T06:19:19Z</time>
      </trkpt>
      <trkpt lat="59.9751731" lon="17.7446741">
        <ele>36.6675</ele>
        <time>2012-08-25T06:19:24Z</time>
      </trkpt>
      <trkpt lat="59.9752228" lon="17.7444634">
        <ele>37.6287</ele>
        <time>2012-08-25T06:19:29Z</time>
      </trkpt>
      <trkpt lat="59.9752658" lon="17.7442884">
        <ele>38.5901</ele>
        <time>2012-08-25T06:19:33Z</time>
      </trkpt>
      <trkpt lat="59.9753204" lon="17.744006">
        <ele>40.0321</ele>
        <time>2012-08-25T06:19:39Z</time>
      </trkpt>
      <trkpt lat="59.9753514" lon="17.7438432">
        <ele>41.474</ele>
        <time>2012-08-25T06:19:43Z</time>
      </trkpt>
      <trkpt lat="59.9753772" lon="17.7436662">
        <ele>42.916</ele>
        <time>2012-08-25T06:19:47Z</time>
      </trkpt>
      <trkpt lat="59.9753971" lon="17.7435094">
        <ele>42.4354</ele>
        <time>2012-08-25T06:19:50Z</time>
      </trkpt>
      <trkpt lat="59.9754178" lon="17.7433673">
        <ele>42.4354</ele>
        <time>2012-08-25T06:19:53Z</time>
      </trkpt>
      <trkpt lat="59.9754639" lon="17.7431684">
        <ele>42.916</ele>
        <time>2012-08-25T06:19:58Z</time>
      </trkpt>
      <trkpt lat="59.9754802" lon="17.743073">
        <ele>43.3966</ele>
        <time>2012-08-25T06:20:00Z</time>
      </trkpt>
      <trkpt lat="59.9755452" lon="17.7428068">
        <ele>42.4354</ele>
        <time>2012-08-25T06:20:06Z</time>
      </trkpt>
      <trkpt lat="59.9756137" lon="17.742557">
        <ele>41.9547</ele>
        <time>2012-08-25T06:20:12Z</time>
      </trkpt>
      <trkpt lat="59.9756643" lon="17.7423697">
        <ele>40.0321</ele>
        <time>2012-08-25T06:20:17Z</time>
      </trkpt>
      <trkpt lat="59.9756891" lon="17.7423173">
        <ele>39.5513</ele>
        <time>2012-08-25T06:20:19Z</time>
      </trkpt>
      <trkpt lat="59.9757462" lon="17.742095">
        <ele>36.6675</ele>
        <time>2012-08-25T06:20:25Z</time>
      </trkpt>
      <trkpt lat="59.9757572" lon="17.7420584">
        <ele>36.6675</ele>
        <time>2012-08-25T06:20:26Z</time>
      </trkpt>
      <trkpt lat="59.9758193" lon="17.7418027">
        <ele>35.2255</ele>
        <time>2012-08-25T06:20:32Z</time>
      </trkpt>
      <trkpt lat="59.9758513" lon="17.7415971">
        <ele>34.2642</ele>
        <time>2012-08-25T06:20:36Z</time>
      </trkpt>
      <trkpt lat="59.9758724" lon="17.7415266">
        <ele>34.2642</ele>
        <time>2012-08-25T06:20:38Z</time>
      </trkpt>
      <trkpt lat="59.9759195" lon="17.7412994">
        <ele>34.7449</ele>
        <time>2012-08-25T06:20:43Z</time>
      </trkpt>
      <trkpt lat="59.9759289" lon="17.7412543">
        <ele>34.2642</ele>
        <time>2012-08-25T06:20:44Z</time>
      </trkpt>
      <trkpt lat="59.975954" lon="17.7411842">
        <ele>34.7449</ele>
        <time>2012-08-25T06:20:46Z</time>
      </trkpt>
      <trkpt lat="59.9759751" lon="17.7410985">
        <ele>34.2642</ele>
        <time>2012-08-25T06:20:48Z</time>
      </trkpt>
      <trkpt lat="59.9760378" lon="17.7408721">
        <ele>33.3029</ele>
        <time>2012-08-25T06:20:53Z</time>
      </trkpt>
      <trkpt lat="59.9760876" lon="17.7407028">
        <ele>32.3416</ele>
        <time>2012-08-25T06:20:57Z</time>
      </trkpt>
      <trkpt lat="59.976145" lon="17.7405132">
        <ele>31.3801</ele>
        <time>2012-08-25T06:21:02Z</time>
      </trkpt>
      <trkpt lat="59.9762119" lon="17.7403722">
        <ele>31.3801</ele>
        <time>2012-08-25T06:21:07Z</time>
      </trkpt>
      <trkpt lat="59.9762638" lon="17.7402153">
        <ele>30.8995</ele>
        <time>2012-08-25T06:21:11Z</time>
      </trkpt>
      <trkpt lat="59.9763186" lon="17.7399587">
        <ele>29.4575</ele>
        <time>2012-08-25T06:21:16Z</time>
      </trkpt>
      <trkpt lat="59.9764065" lon="17.7397262">
        <ele>28.4962</ele>
        <time>2012-08-25T06:21:22Z</time>
      </trkpt>
      <trkpt lat="59.9764951" lon="17.7395922">
        <ele>28.9769</ele>
        <time>2012-08-25T06:21:27Z</time>
      </trkpt>
      <trkpt lat="59.9765718" lon="17.739459">
        <ele>28.4962</ele>
        <time>2012-08-25T06:21:31Z</time>
      </trkpt>
      <trkpt lat="59.9766986" lon="17.7393081">
        <ele>28.9769</ele>
        <time>2012-08-25T06:21:37Z</time>
      </trkpt>
      <trkpt lat="59.9768122" lon="17.7392361">
        <ele>29.4575</ele>
        <time>2012-08-25T06:21:43Z</time>
      </trkpt>
      <trkpt lat="59.9769512" lon="17.7391917">
        <ele>28.9769</ele>
        <time>2012-08-25T06:21:49Z</time>
      </trkpt>
      <trkpt lat="59.9770733" lon="17.7391963">
        <ele>28.4962</ele>
        <time>2012-08-25T06:21:54Z</time>
      </trkpt>
      <trkpt lat="59.977178" lon="17.7391419">
        <ele>28.4962</ele>
        <time>2012-08-25T06:21:59Z</time>
      </trkpt>
      <trkpt lat="59.9772799" lon="17.7390725">
        <ele>29.9381</ele>
        <time>2012-08-25T06:22:04Z</time>
      </trkpt>
      <trkpt lat="59.9773815" lon="17.7390019">
        <ele>31.8607</ele>
        <time>2012-08-25T06:22:09Z</time>
      </trkpt>
      <trkpt lat="59.9775126" lon="17.7389392">
        <ele>34.2642</ele>
        <time>2012-08-25T06:22:15Z</time>
      </trkpt>
      <trkpt lat="59.9776058" lon="17.7389281">
        <ele>36.1868</ele>
        <time>2012-08-25T06:22:19Z</time>
      </trkpt>
      <trkpt lat="59.9777258" lon="17.738918">
        <ele>37.6287</ele>
        <time>2012-08-25T06:22:25Z</time>
      </trkpt>
      <trkpt lat="59.9778306" lon="17.7389559">
        <ele>38.1094</ele>
        <time>2012-08-25T06:22:30Z</time>
      </trkpt>
      <trkpt lat="59.9779596" lon="17.7390197">
        <ele>39.0707</ele>
        <time>2012-08-25T06:22:36Z</time>
      </trkpt>
      <trkpt lat="59.978067" lon="17.7390704">
        <ele>39.5513</ele>
        <time>2012-08-25T06:22:41Z</time>
      </trkpt>
      <trkpt lat="59.9781648" lon="17.7391195">
        <ele>39.5513</ele>
        <time>2012-08-25T06:22:46Z</time>
      </trkpt>
      <trkpt lat="59.9782619" lon="17.7391663">
        <ele>39.5513</ele>
        <time>2012-08-25T06:22:51Z</time>
      </trkpt>
      <trkpt lat="59.9783674" lon="17.7391993">
        <ele>39.5513</ele>
        <time>2012-08-25T06:22:56Z</time>
      </trkpt>
      <trkpt lat="59.978488" lon="17.7392336">
        <ele>38.5901</ele>
        <time>2012-08-25T06:23:01Z</time>
      </trkpt>
      <trkpt lat="59.978606" lon="17.7392621">
        <ele>38.1094</ele>
        <time>2012-08-25T06:23:06Z</time>
      </trkpt>
      <trkpt lat="59.9787411" lon="17.7392516">
        <ele>38.1094</ele>
        <time>2012-08-25T06:23:11Z</time>
      </trkpt>
      <trkpt lat="59.9788671" lon="17.7392435">
        <ele>36.6675</ele>
        <time>2012-08-25T06:23:17Z</time>
      </trkpt>
      <trkpt lat="59.9790035" lon="17.7392081">
        <ele>36.6675</ele>
        <time>2012-08-25T06:23:23Z</time>
      </trkpt>
      <trkpt lat="59.979132" lon="17.7391456">
        <ele>36.6675</ele>
        <time>2012-08-25T06:23:29Z</time>
      </trkpt>
      <trkpt lat="59.9792333" lon="17.7390755">
        <ele>37.6287</ele>
        <time>2012-08-25T06:23:34Z</time>
      </trkpt>
      <trkpt lat="59.9793275" lon="17.739016">
        <ele>38.5901</ele>
        <time>2012-08-25T06:23:39Z</time>
      </trkpt>
      <trkpt lat="59.9793439" lon="17.7389975">
        <ele>38.5901</ele>
        <time>2012-08-25T06:23:40Z</time>
      </trkpt>
      <trkpt lat="59.9794417" lon="17.7389402">
        <ele>38.5901</ele>
        <time>2012-08-25T06:23:45Z</time>
      </trkpt>
      <trkpt lat="59.9795081" lon="17.7388983">
        <ele>38.5901</ele>
        <time>2012-08-25T06:23:48Z</time>
      </trkpt>
      <trkpt lat="59.9795586" lon="17.7388658">
        <ele>38.5901</ele>
        <time>2012-08-25T06:23:51Z</time>
      </trkpt>
      <trkpt lat="59.9796881" lon="17.7387922">
        <ele>39.5513</ele>
        <time>2012-08-25T06:23:57Z</time>
      </trkpt>
      <trkpt lat="59.9797904" lon="17.738742">
        <ele>39.5513</ele>
        <time>2012-08-25T06:24:02Z</time>
      </trkpt>
      <trkpt lat="59.9799475" lon="17.73874">
        <ele>41.474</ele>
        <time>2012-08-25T06:24:08Z</time>
      </trkpt>
      <trkpt lat="59.9800481" lon="17.7387348">
        <ele>42.4354</ele>
        <time>2012-08-25T06:24:13Z</time>
      </trkpt>
      <trkpt lat="59.9801632" lon="17.7387622">
        <ele>44.358</ele>
        <time>2012-08-25T06:24:18Z</time>
      </trkpt>
      <trkpt lat="59.9801798" lon="17.738771">
        <ele>44.358</ele>
        <time>2012-08-25T06:24:19Z</time>
      </trkpt>
      <trkpt lat="59.9803347" lon="17.7387845">
        <ele>44.8386</ele>
        <time>2012-08-25T06:24:27Z</time>
      </trkpt>
      <trkpt lat="59.9805195" lon="17.7387361">
        <ele>43.8773</ele>
        <time>2012-08-25T06:24:34Z</time>
      </trkpt>
      <trkpt lat="59.9806409" lon="17.7386788">
        <ele>45.7999</ele>
        <time>2012-08-25T06:24:38Z</time>
      </trkpt>
      <trkpt lat="59.9807827" lon="17.7386208">
        <ele>47.2418</ele>
        <time>2012-08-25T06:24:43Z</time>
      </trkpt>
      <trkpt lat="59.9809046" lon="17.738566">
        <ele>49.1646</ele>
        <time>2012-08-25T06:24:49Z</time>
      </trkpt>
      <trkpt lat="59.9810004" lon="17.7385234">
        <ele>50.6066</ele>
        <time>2012-08-25T06:24:53Z</time>
      </trkpt>
      <trkpt lat="59.9811287" lon="17.7385015">
        <ele>53.0098</ele>
        <time>2012-08-25T06:24:59Z</time>
      </trkpt>
      <trkpt lat="59.9812552" lon="17.7384421">
        <ele>53.9712</ele>
        <time>2012-08-25T06:25:04Z</time>
      </trkpt>
      <trkpt lat="59.9813441" lon="17.7384234">
        <ele>52.5292</ele>
        <time>2012-08-25T06:25:08Z</time>
      </trkpt>
      <trkpt lat="59.9814868" lon="17.7383917">
        <ele>52.5292</ele>
        <time>2012-08-25T06:25:14Z</time>
      </trkpt>
      <trkpt lat="59.9816083" lon="17.7383323">
        <ele>53.4905</ele>
        <time>2012-08-25T06:25:19Z</time>
      </trkpt>
      <trkpt lat="59.9817225" lon="17.7382587">
        <ele>52.5292</ele>
        <time>2012-08-25T06:25:25Z</time>
      </trkpt>
      <trkpt lat="59.9818804" lon="17.7381883">
        <ele>52.5292</ele>
        <time>2012-08-25T06:25:32Z</time>
      </trkpt>
      <trkpt lat="59.9819814" lon="17.7381946">
        <ele>52.0486</ele>
        <time>2012-08-25T06:25:37Z</time>
      </trkpt>
      <trkpt lat="59.9821199" lon="17.7381317">
        <ele>51.5679</ele>
        <time>2012-08-25T06:25:44Z</time>
      </trkpt>
      <trkpt lat="59.9822679" lon="17.7380702">
        <ele>53.0098</ele>
        <time>2012-08-25T06:25:50Z</time>
      </trkpt>
      <trkpt lat="59.9823974" lon="17.7380593">
        <ele>51.5679</ele>
        <time>2012-08-25T06:25:56Z</time>
      </trkpt>
      <trkpt lat="59.9825332" lon="17.7380342">
        <ele>52.5292</ele>
        <time>2012-08-25T06:26:01Z</time>
      </trkpt>
      <trkpt lat="59.9826303" lon="17.7380498">
        <ele>50.6066</ele>
        <time>2012-08-25T06:26:06Z</time>
      </trkpt>
      <trkpt lat="59.982758" lon="17.7380739">
        <ele>50.6066</ele>
        <time>2012-08-25T06:26:11Z</time>
      </trkpt>
      <trkpt lat="59.9828798" lon="17.7380913">
        <ele>52.0486</ele>
        <time>2012-08-25T06:26:16Z</time>
      </trkpt>
      <trkpt lat="59.9829817" lon="17.7381163">
        <ele>50.6066</ele>
        <time>2012-08-25T06:26:21Z</time>
      </trkpt>
      <trkpt lat="59.9831281" lon="17.7381235">
        <ele>50.6066</ele>
        <time>2012-08-25T06:26:27Z</time>
      </trkpt>
      <trkpt lat="59.983237" lon="17.7380479">
        <ele>53.9712</ele>
        <time>2012-08-25T06:26:32Z</time>
      </trkpt>
      <trkpt lat="59.9833537" lon="17.7379816">
        <ele>59.2584</ele>
        <time>2012-08-25T06:26:37Z</time>
      </trkpt>
      <trkpt lat="59.9834701" lon="17.7379421">
        <ele>61.181</ele>
        <time>2012-08-25T06:26:42Z</time>
      </trkpt>
      <trkpt lat="59.9836065" lon="17.7379407">
        <ele>62.6229</ele>
        <time>2012-08-25T06:26:47Z</time>
      </trkpt>
      <trkpt lat="59.9837327" lon="17.7379373">
        <ele>62.6229</ele>
        <time>2012-08-25T06:26:52Z</time>
      </trkpt>
      <trkpt lat="59.9838443" lon="17.7379386">
        <ele>62.6229</ele>
        <time>2012-08-25T06:26:57Z</time>
      </trkpt>
      <trkpt lat="59.9839523" lon="17.7378718">
        <ele>62.6229</ele>
        <time>2012-08-25T06:27:02Z</time>
      </trkpt>
      <trkpt lat="59.9840882" lon="17.7378312">
        <ele>61.181</ele>
        <time>2012-08-25T06:27:07Z</time>
      </trkpt>
      <trkpt lat="59.9842099" lon="17.7378657">
        <ele>61.181</ele>
        <time>2012-08-25T06:27:12Z</time>
      </trkpt>
      <trkpt lat="59.9843383" lon="17.7379161">
        <ele>54.9324</ele>
        <time>2012-08-25T06:27:19Z</time>
      </trkpt>
      <trkpt lat="59.9844441" lon="17.7379526">
        <ele>53.0098</ele>
        <time>2012-08-25T06:27:24Z</time>
      </trkpt>
      <trkpt lat="59.9845683" lon="17.7379584">
        <ele>50.6066</ele>
        <time>2012-08-25T06:27:30Z</time>
      </trkpt>
      <trkpt lat="59.9847041" lon="17.7379671">
        <ele>51.0872</ele>
        <time>2012-08-25T06:27:36Z</time>
      </trkpt>
      <trkpt lat="59.9847669" lon="17.737979">
        <ele>52.0486</ele>
        <time>2012-08-25T06:27:39Z</time>
      </trkpt>
      <trkpt lat="59.9848859" lon="17.7380246">
        <ele>53.4905</ele>
        <time>2012-08-25T06:27:44Z</time>
      </trkpt>
      <trkpt lat="59.9850372" lon="17.7380625">
        <ele>54.4518</ele>
        <time>2012-08-25T06:27:50Z</time>
      </trkpt>
      <trkpt lat="59.9851455" lon="17.7381184">
        <ele>52.0486</ele>
        <time>2012-08-25T06:27:55Z</time>
      </trkpt>
      <trkpt lat="59.9852791" lon="17.7381576">
        <ele>51.5679</ele>
        <time>2012-08-25T06:28:01Z</time>
      </trkpt>
      <trkpt lat="59.9854097" lon="17.7381923">
        <ele>53.4905</ele>
        <time>2012-08-25T06:28:06Z</time>
      </trkpt>
      <trkpt lat="59.9854336" lon="17.7382018">
        <ele>54.4518</ele>
        <time>2012-08-25T06:28:07Z</time>
      </trkpt>
      <trkpt lat="59.9855042" lon="17.7382395">
        <ele>54.4518</ele>
        <time>2012-08-25T06:28:10Z</time>
      </trkpt>
      <trkpt lat="59.9857034" lon="17.7382881">
        <ele>56.8551</ele>
        <time>2012-08-25T06:28:17Z</time>
      </trkpt>
      <trkpt lat="59.9858552" lon="17.7383632">
        <ele>57.3358</ele>
        <time>2012-08-25T06:28:23Z</time>
      </trkpt>
      <trkpt lat="59.9859552" lon="17.7384032">
        <ele>55.8938</ele>
        <time>2012-08-25T06:28:27Z</time>
      </trkpt>
      <trkpt lat="59.9860794" lon="17.7385048">
        <ele>53.4905</ele>
        <time>2012-08-25T06:28:33Z</time>
      </trkpt>
      <trkpt lat="59.9862364" lon="17.738572">
        <ele>53.9712</ele>
        <time>2012-08-25T06:28:39Z</time>
      </trkpt>
      <trkpt lat="59.9863286" lon="17.7386338">
        <ele>54.4518</ele>
        <time>2012-08-25T06:28:43Z</time>
      </trkpt>
      <trkpt lat="59.9864404" lon="17.7387336">
        <ele>53.0098</ele>
        <time>2012-08-25T06:28:48Z</time>
      </trkpt>
      <trkpt lat="59.9865518" lon="17.7388233">
        <ele>54.9324</ele>
        <time>2012-08-25T06:28:53Z</time>
      </trkpt>
      <trkpt lat="59.9866424" lon="17.738915">
        <ele>54.4518</ele>
        <time>2012-08-25T06:28:58Z</time>
      </trkpt>
      <trkpt lat="59.9867305" lon="17.7390428">
        <ele>54.9324</ele>
        <time>2012-08-25T06:29:04Z</time>
      </trkpt>
      <trkpt lat="59.9867668" lon="17.7390874">
        <ele>55.8938</ele>
        <time>2012-08-25T06:29:06Z</time>
      </trkpt>
      <trkpt lat="59.9868733" lon="17.7391798">
        <ele>55.4131</ele>
        <time>2012-08-25T06:29:11Z</time>
      </trkpt>
      <trkpt lat="59.9869523" lon="17.7392876">
        <ele>53.9712</ele>
        <time>2012-08-25T06:29:16Z</time>
      </trkpt>
      <trkpt lat="59.9870688" lon="17.7393756">
        <ele>53.9712</ele>
        <time>2012-08-25T06:29:22Z</time>
      </trkpt>
      <trkpt lat="59.9872257" lon="17.7393625">
        <ele>55.4131</ele>
        <time>2012-08-25T06:29:29Z</time>
      </trkpt>
      <trkpt lat="59.987277" lon="17.7393373">
        <ele>55.8938</ele>
        <time>2012-08-25T06:29:31Z</time>
      </trkpt>
      <trkpt lat="59.9874422" lon="17.7393192">
        <ele>57.3358</ele>
        <time>2012-08-25T06:29:38Z</time>
      </trkpt>
      <trkpt lat="59.9875559" lon="17.7393019">
        <ele>58.7777</ele>
        <time>2012-08-25T06:29:43Z</time>
      </trkpt>
      <trkpt lat="59.9876196" lon="17.7392757">
        <ele>57.8165</ele>
        <time>2012-08-25T06:29:46Z</time>
      </trkpt>
      <trkpt lat="59.9876687" lon="17.7392671">
        <ele>57.8165</ele>
        <time>2012-08-25T06:29:48Z</time>
      </trkpt>
      <trkpt lat="59.9877023" lon="17.7392896">
        <ele>56.3745</ele>
        <time>2012-08-25T06:29:51Z</time>
      </trkpt>
      <trkpt lat="59.9876159" lon="17.7393386">
        <ele>55.8938</ele>
        <time>2012-08-25T06:29:56Z</time>
      </trkpt>
      <trkpt lat="59.9875219" lon="17.7393555">
        <ele>53.0098</ele>
        <time>2012-08-25T06:30:01Z</time>
      </trkpt>
      <trkpt lat="59.9874927" lon="17.7393726">
        <ele>52.5292</ele>
        <time>2012-08-25T06:30:03Z</time>
      </trkpt>
      <trkpt lat="59.9873409" lon="17.7393757">
        <ele>49.6453</ele>
        <time>2012-08-25T06:30:09Z</time>
      </trkpt>
      <trkpt lat="59.9872279" lon="17.7393957">
        <ele>46.2806</ele>
        <time>2012-08-25T06:30:14Z</time>
      </trkpt>
      <trkpt lat="59.987131" lon="17.7393926">
        <ele>44.358</ele>
        <time>2012-08-25T06:30:18Z</time>
      </trkpt>
      <trkpt lat="59.9871098" lon="17.7393935">
        <ele>43.8773</ele>
        <time>2012-08-25T06:30:19Z</time>
      </trkpt>
      <trkpt lat="59.9869914" lon="17.7393121">
        <ele>43.3966</ele>
        <time>2012-08-25T06:30:25Z</time>
      </trkpt>
      <trkpt lat="59.9869734" lon="17.7392988">
        <ele>43.3966</ele>
        <time>2012-08-25T06:30:26Z</time>
      </trkpt>
      <trkpt lat="59.986932" lon="17.739262">
        <ele>43.8773</ele>
        <time>2012-08-25T06:30:28Z</time>
      </trkpt>
      <trkpt lat="59.9868177" lon="17.7391946">
        <ele>43.3966</ele>
        <time>2012-08-25T06:30:33Z</time>
      </trkpt>
      <trkpt lat="59.9867803" lon="17.739157">
        <ele>43.8773</ele>
        <time>2012-08-25T06:30:35Z</time>
      </trkpt>
      <trkpt lat="59.9866716" lon="17.739034">
        <ele>44.8386</ele>
        <time>2012-08-25T06:30:40Z</time>
      </trkpt>
      <trkpt lat="59.9865761" lon="17.7388715">
        <ele>47.2418</ele>
        <time>2012-08-25T06:30:45Z</time>
      </trkpt>
      <trkpt lat="59.9865237" lon="17.7388249">
        <ele>47.2418</ele>
        <time>2012-08-25T06:30:47Z</time>
      </trkpt>
      <trkpt lat="59.9864076" lon="17.7387218">
        <ele>46.7612</ele>
        <time>2012-08-25T06:30:53Z</time>
      </trkpt>
      <trkpt lat="59.9862929" lon="17.7386248">
        <ele>44.8386</ele>
        <time>2012-08-25T06:30:58Z</time>
      </trkpt>
      <trkpt lat="59.9862437" lon="17.7385838">
        <ele>44.358</ele>
        <time>2012-08-25T06:31:00Z</time>
      </trkpt>
      <trkpt lat="59.9861279" lon="17.7385051">
        <ele>44.358</ele>
        <time>2012-08-25T06:31:05Z</time>
      </trkpt>
      <trkpt lat="59.9860256" lon="17.7384468">
        <ele>44.8386</ele>
        <time>2012-08-25T06:31:09Z</time>
      </trkpt>
      <trkpt lat="59.9859072" lon="17.7383722">
        <ele>42.4354</ele>
        <time>2012-08-25T06:31:14Z</time>
      </trkpt>
      <trkpt lat="59.9858028" lon="17.7383371">
        <ele>40.0321</ele>
        <time>2012-08-25T06:31:18Z</time>
      </trkpt>
      <trkpt lat="59.9856832" lon="17.7383126">
        <ele>40.5128</ele>
        <time>2012-08-25T06:31:23Z</time>
      </trkpt>
      <trkpt lat="59.9856052" lon="17.7382965">
        <ele>40.5128</ele>
        <time>2012-08-25T06:31:26Z</time>
      </trkpt>
      <trkpt lat="59.9855028" lon="17.7382585">
        <ele>38.5901</ele>
        <time>2012-08-25T06:31:31Z</time>
      </trkpt>
      <trkpt lat="59.985455" lon="17.7382276">
        <ele>38.1094</ele>
        <time>2012-08-25T06:31:33Z</time>
      </trkpt>
      <trkpt lat="59.9852926" lon="17.7381927">
        <ele>38.1094</ele>
        <time>2012-08-25T06:31:40Z</time>
      </trkpt>
      <trkpt lat="59.9851956" lon="17.738181">
        <ele>38.5901</ele>
        <time>2012-08-25T06:31:44Z</time>
      </trkpt>
      <trkpt lat="59.9850808" lon="17.7381508">
        <ele>39.5513</ele>
        <time>2012-08-25T06:31:49Z</time>
      </trkpt>
      <trkpt lat="59.9849108" lon="17.7381267">
        <ele>40.5128</ele>
        <time>2012-08-25T06:31:56Z</time>
      </trkpt>
      <trkpt lat="59.9847842" lon="17.7380903">
        <ele>39.5513</ele>
        <time>2012-08-25T06:32:01Z</time>
      </trkpt>
      <trkpt lat="59.9847128" lon="17.7380539">
        <ele>38.5901</ele>
        <time>2012-08-25T06:32:05Z</time>
      </trkpt>
      <trkpt lat="59.9845948" lon="17.7380159">
        <ele>36.6675</ele>
        <time>2012-08-25T06:32:10Z</time>
      </trkpt>
      <trkpt lat="59.9844388" lon="17.7379598">
        <ele>34.2642</ele>
        <time>2012-08-25T06:32:16Z</time>
      </trkpt>
      <trkpt lat="59.9843146" lon="17.7379302">
        <ele>31.8607</ele>
        <time>2012-08-25T06:32:21Z</time>
      </trkpt>
      <trkpt lat="59.9842251" lon="17.7378878">
        <ele>30.8995</ele>
        <time>2012-08-25T06:32:25Z</time>
      </trkpt>
      <trkpt lat="59.984168" lon="17.7378931">
        <ele>29.9381</ele>
        <time>2012-08-25T06:32:28Z</time>
      </trkpt>
      <trkpt lat="59.9840854" lon="17.7378688">
        <ele>28.4962</ele>
        <time>2012-08-25T06:32:31Z</time>
      </trkpt>
      <trkpt lat="59.9839898" lon="17.7378961">
        <ele>27.0543</ele>
        <time>2012-08-25T06:32:35Z</time>
      </trkpt>
      <trkpt lat="59.983938" lon="17.7378936">
        <ele>25.6123</ele>
        <time>2012-08-25T06:32:37Z</time>
      </trkpt>
      <trkpt lat="59.9838214" lon="17.7379195">
        <ele>22.2476</ele>
        <time>2012-08-25T06:32:42Z</time>
      </trkpt>
      <trkpt lat="59.983722" lon="17.7379258">
        <ele>23.209</ele>
        <time>2012-08-25T06:32:46Z</time>
      </trkpt>
      <trkpt lat="59.9835919" lon="17.7379525">
        <ele>22.2476</ele>
        <time>2012-08-25T06:32:52Z</time>
      </trkpt>
      <trkpt lat="59.9834798" lon="17.7379982">
        <ele>23.209</ele>
        <time>2012-08-25T06:32:57Z</time>
      </trkpt>
      <trkpt lat="59.9833918" lon="17.7380121">
        <ele>25.1317</ele>
        <time>2012-08-25T06:33:01Z</time>
      </trkpt>
      <trkpt lat="59.9832734" lon="17.7380177">
        <ele>26.0929</ele>
        <time>2012-08-25T06:33:06Z</time>
      </trkpt>
      <trkpt lat="59.9831635" lon="17.7380011">
        <ele>26.5736</ele>
        <time>2012-08-25T06:33:11Z</time>
      </trkpt>
      <trkpt lat="59.9830744" lon="17.7380111">
        <ele>26.0929</ele>
        <time>2012-08-25T06:33:15Z</time>
      </trkpt>
      <trkpt lat="59.9830315" lon="17.7379975">
        <ele>27.0543</ele>
        <time>2012-08-25T06:33:17Z</time>
      </trkpt>
      <trkpt lat="59.9829237" lon="17.7379868">
        <ele>26.0929</ele>
        <time>2012-08-25T06:33:22Z</time>
      </trkpt>
      <trkpt lat="59.9829021" lon="17.7379838">
        <ele>25.6123</ele>
        <time>2012-08-25T06:33:23Z</time>
      </trkpt>
      <trkpt lat="59.982805" lon="17.737951">
        <ele>24.651</ele>
        <time>2012-08-25T06:33:28Z</time>
      </trkpt>
      <trkpt lat="59.9827854" lon="17.7379521">
        <ele>25.6123</ele>
        <time>2012-08-25T06:33:29Z</time>
      </trkpt>
      <trkpt lat="59.982743" lon="17.7379542">
        <ele>26.0929</ele>
        <time>2012-08-25T06:33:31Z</time>
      </trkpt>
      <trkpt lat="59.9826065" lon="17.7379851">
        <ele>28.4962</ele>
        <time>2012-08-25T06:33:36Z</time>
      </trkpt>
      <trkpt lat="59.9824585" lon="17.7380127">
        <ele>28.4962</ele>
        <time>2012-08-25T06:33:41Z</time>
      </trkpt>
      <trkpt lat="59.9823012" lon="17.738095">
        <ele>29.4575</ele>
        <time>2012-08-25T06:33:47Z</time>
      </trkpt>
      <trkpt lat="59.9821866" lon="17.7381559">
        <ele>31.3801</ele>
        <time>2012-08-25T06:33:52Z</time>
      </trkpt>
      <trkpt lat="59.9820529" lon="17.7382623">
        <ele>33.3029</ele>
        <time>2012-08-25T06:33:57Z</time>
      </trkpt>
      <trkpt lat="59.9819478" lon="17.7383162">
        <ele>34.7449</ele>
        <time>2012-08-25T06:34:01Z</time>
      </trkpt>
      <trkpt lat="59.9818194" lon="17.738367">
        <ele>34.2642</ele>
        <time>2012-08-25T06:34:06Z</time>
      </trkpt>
      <trkpt lat="59.9816271" lon="17.7384282">
        <ele>38.5901</ele>
        <time>2012-08-25T06:34:14Z</time>
      </trkpt>
      <trkpt lat="59.9815499" lon="17.7384409">
        <ele>38.5901</ele>
        <time>2012-08-25T06:34:18Z</time>
      </trkpt>
      <trkpt lat="59.9814718" lon="17.7384852">
        <ele>38.1094</ele>
        <time>2012-08-25T06:34:22Z</time>
      </trkpt>
      <trkpt lat="59.9814303" lon="17.7384658">
        <ele>37.6287</ele>
        <time>2012-08-25T06:34:24Z</time>
      </trkpt>
      <trkpt lat="59.9813033" lon="17.7384929">
        <ele>36.6675</ele>
        <time>2012-08-25T06:34:29Z</time>
      </trkpt>
      <trkpt lat="59.9812292" lon="17.7385141">
        <ele>35.2255</ele>
        <time>2012-08-25T06:34:32Z</time>
      </trkpt>
      <trkpt lat="59.9811081" lon="17.738546">
        <ele>33.7834</ele>
        <time>2012-08-25T06:34:37Z</time>
      </trkpt>
      <trkpt lat="59.9810216" lon="17.7385239">
        <ele>29.4575</ele>
        <time>2012-08-25T06:34:41Z</time>
      </trkpt>
      <trkpt lat="59.9809877" lon="17.7385173">
        <ele>28.4962</ele>
        <time>2012-08-25T06:34:43Z</time>
      </trkpt>
      <trkpt lat="59.9808439" lon="17.7386042">
        <ele>27.5349</ele>
        <time>2012-08-25T06:34:49Z</time>
      </trkpt>
      <trkpt lat="59.9807365" lon="17.7386323">
        <ele>25.6123</ele>
        <time>2012-08-25T06:34:54Z</time>
      </trkpt>
      <trkpt lat="59.980632" lon="17.7386582">
        <ele>25.1317</ele>
        <time>2012-08-25T06:34:58Z</time>
      </trkpt>
      <trkpt lat="59.9806036" lon="17.7386558">
        <ele>25.1317</ele>
        <time>2012-08-25T06:34:59Z</time>
      </trkpt>
      <trkpt lat="59.980488" lon="17.7386788">
        <ele>24.1703</ele>
        <time>2012-08-25T06:35:03Z</time>
      </trkpt>
      <trkpt lat="59.9803871" lon="17.7386939">
        <ele>25.6123</ele>
        <time>2012-08-25T06:35:07Z</time>
      </trkpt>
      <trkpt lat="59.9802853" lon="17.7387348">
        <ele>25.6123</ele>
        <time>2012-08-25T06:35:13Z</time>
      </trkpt>
      <trkpt lat="59.9802469" lon="17.738731">
        <ele>25.6123</ele>
        <time>2012-08-25T06:35:15Z</time>
      </trkpt>
      <trkpt lat="59.9801863" lon="17.738704">
        <ele>26.0929</ele>
        <time>2012-08-25T06:35:18Z</time>
      </trkpt>
      <trkpt lat="59.9800864" lon="17.7386936">
        <ele>28.0155</ele>
        <time>2012-08-25T06:35:23Z</time>
      </trkpt>
      <trkpt lat="59.9799736" lon="17.7386888">
        <ele>29.9381</ele>
        <time>2012-08-25T06:35:27Z</time>
      </trkpt>
      <trkpt lat="59.9798616" lon="17.7387149">
        <ele>30.4188</ele>
        <time>2012-08-25T06:35:32Z</time>
      </trkpt>
      <trkpt lat="59.9797694" lon="17.7387476">
        <ele>30.8995</ele>
        <time>2012-08-25T06:35:36Z</time>
      </trkpt>
      <trkpt lat="59.979698" lon="17.7387761">
        <ele>31.3801</ele>
        <time>2012-08-25T06:35:39Z</time>
      </trkpt>
      <trkpt lat="59.9795827" lon="17.7388452">
        <ele>31.3801</ele>
        <time>2012-08-25T06:35:44Z</time>
      </trkpt>
      <trkpt lat="59.9794862" lon="17.7388951">
        <ele>31.3801</ele>
        <time>2012-08-25T06:35:49Z</time>
      </trkpt>
      <trkpt lat="59.9794084" lon="17.7389192">
        <ele>30.8995</ele>
        <time>2012-08-25T06:35:53Z</time>
      </trkpt>
      <trkpt lat="59.9793106" lon="17.738999">
        <ele>30.8995</ele>
        <time>2012-08-25T06:35:57Z</time>
      </trkpt>
      <trkpt lat="59.979222" lon="17.7390621">
        <ele>30.8995</ele>
        <time>2012-08-25T06:36:01Z</time>
      </trkpt>
      <trkpt lat="59.9790908" lon="17.7391429">
        <ele>30.8995</ele>
        <time>2012-08-25T06:36:06Z</time>
      </trkpt>
      <trkpt lat="59.9789543" lon="17.7392028">
        <ele>31.8607</ele>
        <time>2012-08-25T06:36:12Z</time>
      </trkpt>
      <trkpt lat="59.9788843" lon="17.7393674">
        <ele>30.4188</ele>
        <time>2012-08-25T06:36:16Z</time>
      </trkpt>
      <trkpt lat="59.9788598" lon="17.7394691">
        <ele>29.9381</ele>
        <time>2012-08-25T06:36:18Z</time>
      </trkpt>
      <trkpt lat="59.9787874" lon="17.7396517">
        <ele>30.4188</ele>
        <time>2012-08-25T06:36:22Z</time>
      </trkpt>
      <trkpt lat="59.9787697" lon="17.7396815">
        <ele>30.4188</ele>
        <time>2012-08-25T06:36:23Z</time>
      </trkpt>
      <trkpt lat="59.9787449" lon="17.7398853">
        <ele>30.4188</ele>
        <time>2012-08-25T06:36:28Z</time>
      </trkpt>
      <trkpt lat="59.9787666" lon="17.739907">
        <ele>32.3416</ele>
        <time>2012-08-25T06:36:29Z</time>
      </trkpt>
    </trkseg>
  </trk>
</gpx>